Time;durP1;ratioP1;P1;durP2;ratioP2;P2;SDS_P1;SDS_P2;PMS_P1;PMS_P2;Temp;Humidity;BMP_temperature;BMP_pressure;BME280_temperature;BME280_humidity;BME280_pressure;Samples;Min_cycle;Max_cycle;Signal;HPM_P1;HPM_P2
2022/06/08 00:01:46;;;;;;;13.70;4.28;;;15.40;99.90;;;;;;5002232;28;20032;-67
2022/06/08 00:04:13;;;;;;;9.10;4.22;;;15.40;99.90;;;;;;4992508;28;20045;-69
2022/06/08 00:06:39;;;;;;;8.95;3.40;;;15.40;99.90;;;;;;4993541;28;20022;-68
2022/06/08 00:09:05;;;;;;;6.90;3.30;;;15.40;99.90;;;;;;5002977;28;20119;-68
2022/06/08 00:11:31;;;;;;;10.85;3.65;;;15.40;99.90;;;;;;4994513;28;20622;-68
2022/06/08 00:13:57;;;;;;;9.07;3.90;;;15.40;99.90;;;;;;5004115;28;20120;-67
2022/06/08 00:16:23;;;;;;;9.90;3.80;;;15.40;99.90;;;;;;5001622;28;20055;-68
2022/06/08 00:18:48;;;;;;;6.10;3.45;;;15.40;99.90;;;;;;5001028;28;20077;-70
2022/06/08 00:21:15;;;;;;;8.77;3.97;;;15.50;99.90;;;;;;5001270;28;20038;-69
2022/06/08 00:23:42;;;;;;;14.80;4.25;;;15.50;99.90;;;;;;4998084;28;20380;-70
2022/06/08 00:26:07;;;;;;;8.80;3.17;;;15.50;99.90;;;;;;5012739;28;20168;-68
2022/06/08 00:28:34;;;;;;;8.70;3.83;;;15.50;99.90;;;;;;5004885;28;20134;-70
2022/06/08 00:31:01;;;;;;;9.65;4.22;;;15.50;99.90;;;;;;5006672;28;20038;-72
2022/06/08 00:33:27;;;;;;;9.32;3.72;;;15.40;99.90;;;;;;4998127;28;20030;-67
2022/06/08 00:35:52;;;;;;;7.47;3.50;;;15.40;99.90;;;;;;5007598;28;20093;-69
2022/06/08 00:38:18;;;;;;;15.60;4.30;;;15.40;99.90;;;;;;5002149;28;20039;-68
2022/06/08 00:40:59;;;;;;;9.85;4.30;;;15.40;99.90;;;;;;5004243;28;20026;-68
2022/06/08 00:43:25;;;;;;;9.80;4.00;;;15.40;99.90;;;;;;5000342;28;20034;-68
2022/06/08 00:45:52;;;;;;;11.70;4.07;;;15.40;99.90;;;;;;5006503;28;20030;-68
2022/06/08 00:48:18;;;;;;;8.65;4.15;;;15.30;99.90;;;;;;5014975;28;20030;-68
2022/06/08 00:50:49;;;;;;;10.07;4.20;;;15.40;99.90;;;;;;5020889;28;20049;-68
2022/06/08 00:53:19;;;;;;;9.70;4.50;;;15.40;99.90;;;;;;5022780;28;20486;-69
2022/06/08 00:55:45;;;;;;;11.40;4.93;;;15.40;99.90;;;;;;5023895;28;20030;-68
2022/06/08 00:58:16;;;;;;;15.23;5.55;;;15.40;99.90;;;;;;5021063;28;20053;-72
2022/06/08 01:00:42;;;;;;;15.00;6.05;;;15.40;99.90;;;;;;5026005;28;20034;-68
2022/06/08 01:03:10;;;;;;;14.68;6.35;;;15.40;99.90;;;;;;4992815;28;20065;-68
2022/06/08 01:05:39;;;;;;;20.80;6.38;;;15.40;99.90;;;;;;5005972;28;20042;-68
2022/06/08 01:08:31;;;;;;;13.18;5.80;;;15.40;99.90;;;;;;4998915;28;20038;-68
2022/06/08 01:11:01;;;;;;;13.23;6.00;;;15.40;99.90;;;;;;4989132;28;20042;-67
2022/06/08 01:13:29;;;;;;;12.88;6.07;;;15.40;99.90;;;;;;5011126;28;20038;-68
2022/06/08 01:15:55;;;;;;;18.42;6.32;;;15.40;99.90;;;;;;4999867;28;20037;-67
2022/06/08 01:18:22;;;;;;;14.30;6.18;;;15.40;99.90;;;;;;5002950;28;20030;-68
2022/06/08 01:20:52;;;;;;;15.48;5.80;;;15.40;99.90;;;;;;5002154;28;20026;-67
2022/06/08 01:23:18;;;;;;;16.52;7.13;;;15.40;99.90;;;;;;4998154;28;20027;-70
2022/06/08 01:26:19;;;;;;;17.55;7.05;;;15.50;99.90;;;;;;5009103;28;20035;-67
2022/06/08 01:28:53;;;;;;;16.80;6.85;;;15.50;99.90;;;;;;5010268;28;20513;-67
2022/06/08 01:31:27;;;;;;;19.25;8.20;;;15.50;99.90;;;;;;5002591;28;20045;-69
2022/06/08 01:34:01;;;;;;;17.92;7.97;;;15.50;99.90;;;;;;5006009;28;20065;-68
2022/06/08 01:36:32;;;;;;;15.43;7.50;;;15.40;99.90;;;;;;4996445;28;20046;-68
2022/06/08 01:39:05;;;;;;;14.20;7.50;;;15.40;99.90;;;;;;5000837;28;20026;-68
2022/06/08 01:41:56;;;;;;;14.30;6.75;;;15.50;99.90;;;;;;5003222;28;20041;-67
2022/06/08 01:44:40;;;;;;;14.82;7.72;;;15.40;99.90;;;;;;4977817;28;20033;-68
2022/06/08 01:47:26;;;;;;;14.70;7.32;;;15.40;99.90;;;;;;4996704;28;20092;-67
2022/06/08 01:50:05;;;;;;;18.33;8.38;;;15.40;99.90;;;;;;4988904;28;20516;-67
2022/06/08 01:52:43;;;;;;;20.77;8.90;;;15.30;99.90;;;;;;4987800;28;20137;-67
2022/06/08 01:55:15;;;;;;;17.60;8.15;;;15.30;99.90;;;;;;5001104;28;20033;-68
2022/06/08 01:58:20;;;;;;;19.38;8.10;;;15.20;99.90;;;;;;4996466;28;20111;-69
2022/06/08 02:00:52;;;;;;;19.05;8.20;;;15.20;99.90;;;;;;5001204;28;20441;-67
2022/06/08 02:03:31;;;;;;;17.65;8.00;;;15.10;99.90;;;;;;4995206;28;20040;-67
2022/06/08 02:06:21;;;;;;;19.60;8.50;;;15.10;99.90;;;;;;5004544;28;20053;-69
2022/06/08 02:09:18;;;;;;;19.55;8.35;;;15.00;99.90;;;;;;4998444;28;20790;-68
2022/06/08 02:11:50;;;;;;;18.88;8.85;;;14.90;99.90;;;;;;4998848;28;20076;-68
2022/06/08 02:14:21;;;;;;;19.30;8.43;;;14.90;99.90;;;;;;4997690;28;20477;-70
2022/06/08 02:16:51;;;;;;;20.38;8.98;;;14.90;99.90;;;;;;5001748;28;20033;-71
2022/06/08 02:19:19;;;;;;;;;;;14.80;99.90;;;;;;5001333;28;20482;-67
2022/06/08 02:22:15;;;;;;;23.02;9.52;;;14.80;99.90;;;;;;5005142;28;20423;-67
2022/06/08 02:24:46;;;;;;;19.65;8.60;;;14.80;99.90;;;;;;4988656;28;20038;-69
2022/06/08 02:27:34;;;;;;;22.27;10.70;;;14.80;99.90;;;;;;5004748;28;20049;-70
2022/06/08 02:30:06;;;;;;;18.63;9.75;;;14.80;99.90;;;;;;5003897;28;20042;-68
2022/06/08 02:35:40;;;;;;;23.17;9.30;;;14.70;99.90;;;;;;4991197;28;20077;-68
2022/06/08 02:38:10;;;;;;;20.77;9.80;;;14.70;99.90;;;;;;4996926;28;20041;-67
2022/06/08 02:40:40;;;;;;;21.97;9.33;;;14.70;99.90;;;;;;5004649;28;20034;-67
2022/06/08 02:43:15;;;;;;;17.48;8.70;;;14.60;99.90;;;;;;5007746;28;20051;-68
2022/06/08 02:45:44;;;;;;;24.02;9.00;;;14.50;99.90;;;;;;4997822;28;20046;-68
2022/06/08 02:48:14;;;;;;;22.10;8.20;;;14.50;99.90;;;;;;4990063;28;20068;-68
2022/06/08 02:50:53;;;;;;;19.13;9.32;;;14.50;99.90;;;;;;4996772;28;20509;-71
2022/06/08 02:53:19;;;;;;;19.65;8.88;;;14.50;99.90;;;;;;5005083;28;20482;-68
2022/06/08 02:56:11;;;;;;;19.98;9.30;;;14.50;99.90;;;;;;4998666;28;20045;-71
2022/06/08 02:58:44;;;;;;;23.20;9.43;;;14.50;99.90;;;;;;4995457;28;20462;-69
2022/06/08 03:01:19;;;;;;;24.38;8.60;;;14.50;99.90;;;;;;4995878;28;20508;-67
2022/06/08 03:03:55;;;;;;;16.70;9.23;;;14.40;99.90;;;;;;4986851;28;20026;-67
2022/06/08 03:06:26;;;;;;;18.45;8.93;;;14.40;99.90;;;;;;4996691;28;20027;-67
2022/06/08 03:09:01;;;;;;;19.50;8.68;;;14.40;99.90;;;;;;5004322;28;20034;-68
2022/06/08 03:11:35;;;;;;;16.00;7.25;;;14.40;99.90;;;;;;5004198;28;20125;-68
2022/06/08 03:14:07;;;;;;;16.23;7.75;;;14.40;99.90;;;;;;5000995;28;20041;-67
2022/06/08 03:16:38;;;;;;;24.92;8.98;;;14.40;99.90;;;;;;4989177;28;20035;-67
2022/06/08 03:19:04;;;;;;;15.52;7.68;;;14.40;99.90;;;;;;4993040;28;20046;-69
2022/06/08 03:21:29;;;;;;;19.52;8.05;;;14.40;99.90;;;;;;4988820;28;20368;-67
2022/06/08 03:23:55;;;;;;;19.20;8.85;;;14.40;99.90;;;;;;5002781;28;20073;-68
2022/06/08 03:26:23;;;;;;;19.67;8.63;;;14.40;99.90;;;;;;4996813;28;20049;-68
2022/06/08 03:28:49;;;;;;;19.45;8.57;;;14.40;99.90;;;;;;5002545;28;20128;-70
2022/06/08 03:31:15;;;;;;;15.35;7.38;;;14.40;99.90;;;;;;5001288;28;20045;-68
2022/06/08 03:33:40;;;;;;;17.92;6.95;;;14.40;99.90;;;;;;4998606;28;20037;-68
2022/06/08 03:36:06;;;;;;;15.63;7.75;;;14.40;99.90;;;;;;5000860;28;20165;-67
2022/06/08 03:38:33;;;;;;;12.55;6.55;;;14.40;99.90;;;;;;5002537;28;20087;-67
2022/06/08 03:40:58;;;;;;;16.33;7.97;;;14.40;99.90;;;;;;4996939;28;20121;-67
2022/06/08 03:43:24;;;;;;;15.10;7.05;;;14.40;99.90;;;;;;4988665;28;20598;-68
2022/06/08 03:45:55;;;;;;;16.63;7.25;;;14.50;99.90;;;;;;5002532;28;20038;-67
2022/06/08 03:48:21;;;;;;;13.45;7.00;;;14.50;99.90;;;;;;4992626;28;20457;-72
2022/06/08 03:50:51;;;;;;;16.83;7.03;;;14.50;99.90;;;;;;4995703;28;20038;-68
2022/06/08 03:53:22;;;;;;;14.70;7.38;;;14.50;99.90;;;;;;4992103;28;20120;-68
2022/06/08 03:55:50;;;;;;;13.27;6.32;;;14.50;99.90;;;;;;4984747;28;20375;-67
2022/06/08 03:58:17;;;;;;;14.23;7.07;;;14.60;99.90;;;;;;4999462;28;20030;-67
2022/06/08 04:00:43;;;;;;;17.45;7.43;;;14.60;99.90;;;;;;4995053;28;20034;-67
2022/06/08 04:03:10;;;;;;;13.00;6.55;;;14.60;99.90;;;;;;4999736;28;20424;-68
2022/06/08 04:05:36;;;;;;;14.32;7.22;;;14.70;99.90;;;;;;5000878;28;20037;-68
2022/06/08 04:08:03;;;;;;;14.98;7.13;;;14.80;99.90;;;;;;5000223;28;20031;-68
2022/06/08 04:10:29;;;;;;;13.60;6.40;;;14.80;99.90;;;;;;4986566;28;20059;-69
2022/06/08 04:12:55;;;;;;;17.92;7.05;;;14.80;99.90;;;;;;4995574;28;20522;-67
2022/06/08 04:18:05;;;;;;;15.57;6.13;;;14.90;99.90;;;;;;4992598;28;20080;-69
2022/06/08 04:20:31;;;;;;;14.13;5.63;;;14.90;99.90;;;;;;4989628;28;20224;-67
2022/06/08 04:22:57;;;;;;;12.73;6.00;;;14.90;99.90;;;;;;4999185;28;20045;-67
2022/06/08 04:25:22;;;;;;;13.23;5.75;;;15.00;99.90;;;;;;5000897;28;20038;-68
2022/06/08 04:27:48;;;;;;;12.35;5.78;;;15.10;99.90;;;;;;4998698;28;20044;-73
2022/06/08 04:30:14;;;;;;;12.98;6.03;;;15.10;99.90;;;;;;4999033;28;20056;-68
2022/06/08 04:32:39;;;;;;;10.10;5.53;;;15.20;99.90;;;;;;4992902;28;20042;-67
2022/06/08 04:35:05;;;;;;;11.88;5.75;;;15.30;99.90;;;;;;5005182;28;20045;-67
2022/06/08 04:37:31;;;;;;;9.75;5.50;;;15.30;99.90;;;;;;4992216;28;20038;-68
2022/06/08 04:39:56;;;;;;;11.95;5.95;;;15.30;99.90;;;;;;4988921;28;20053;-72
2022/06/08 04:42:22;;;;;;;13.05;5.30;;;15.40;99.90;;;;;;4987695;28;20097;-68
2022/06/08 04:44:47;;;;;;;11.60;5.55;;;15.40;99.90;;;;;;5002745;28;20039;-68
2022/06/08 04:47:13;;;;;;;9.35;4.82;;;15.40;99.90;;;;;;5000137;28;20422;-69
2022/06/08 04:49:39;;;;;;;13.57;5.18;;;15.50;99.90;;;;;;5001851;28;20100;-67
2022/06/08 04:52:05;;;;;;;12.63;5.57;;;15.60;99.90;;;;;;5007898;28;20085;-67
2022/06/08 04:54:31;;;;;;;10.45;5.15;;;15.60;99.90;;;;;;4983846;28;20121;-67
2022/06/08 04:56:57;;;;;;;11.93;5.32;;;15.60;99.90;;;;;;4989592;28;20197;-71
2022/06/08 04:59:23;;;;;;;10.50;5.45;;;15.60;99.90;;;;;;4990966;28;20597;-67
2022/06/08 05:01:48;;;;;;;9.95;4.90;;;15.70;99.90;;;;;;4990987;28;20394;-70
2022/06/08 05:04:14;;;;;;;10.05;4.53;;;15.70;99.90;;;;;;4990614;28;20048;-71
2022/06/08 05:06:40;;;;;;;9.73;4.95;;;15.70;99.90;;;;;;4991188;28;20066;-67
2022/06/08 05:09:06;;;;;;;12.77;5.38;;;15.80;99.90;;;;;;4991844;28;20058;-67
2022/06/08 05:11:31;;;;;;;11.00;5.15;;;15.80;99.90;;;;;;4989421;28;20042;-67
2022/06/08 05:13:57;;;;;;;12.20;4.45;;;15.90;99.90;;;;;;4987822;28;20037;-69
2022/06/08 05:16:23;;;;;;;10.90;4.68;;;16.00;99.90;;;;;;4986664;28;20050;-67
2022/06/08 05:18:49;;;;;;;8.93;5.18;;;16.00;99.90;;;;;;4992650;28;20084;-67
2022/06/08 05:21:15;;;;;;;10.20;5.05;;;16.00;99.90;;;;;;4993815;28;20558;-70
2022/06/08 05:23:43;;;;;;;10.02;4.97;;;16.00;99.90;;;;;;4988908;28;20038;-67
2022/06/08 05:26:08;;;;;;;8.48;4.32;;;15.90;99.90;;;;;;4992194;28;20517;-69
2022/06/08 05:28:34;;;;;;;9.88;4.53;;;16.00;99.90;;;;;;4992188;28;20033;-67
2022/06/08 05:31:00;;;;;;;11.48;4.38;;;16.00;99.90;;;;;;4995563;28;20142;-69
2022/06/08 05:33:27;;;;;;;8.60;4.18;;;16.10;99.90;;;;;;4986709;28;20053;-68
2022/06/08 05:35:54;;;;;;;9.85;4.68;;;16.10;99.90;;;;;;4988880;28;20097;-68
2022/06/08 05:38:20;;;;;;;8.77;3.75;;;16.20;99.90;;;;;;4990618;28;20042;-72
2022/06/08 05:40:46;;;;;;;8.07;4.15;;;16.30;99.90;;;;;;4991269;28;20045;-70
2022/06/08 05:43:14;;;;;;;7.50;3.88;;;16.40;99.90;;;;;;4991611;28;20145;-69
2022/06/08 05:45:40;;;;;;;8.68;4.13;;;16.50;99.90;;;;;;4986901;28;20080;-67
2022/06/08 05:48:07;;;;;;;7.82;3.97;;;16.50;99.90;;;;;;4995083;28;20097;-67
2022/06/08 05:50:34;;;;;;;14.27;4.63;;;16.60;99.90;;;;;;4989042;28;20041;-69
2022/06/08 05:53:00;;;;;;;7.03;3.65;;;16.60;99.90;;;;;;4991127;28;20041;-68
2022/06/08 05:55:26;;;;;;;6.20;3.63;;;16.70;99.90;;;;;;4992581;28;20034;-68
2022/06/08 05:57:52;;;;;;;7.80;4.10;;;16.80;99.90;;;;;;4987676;28;20804;-70
2022/06/08 06:00:22;;;;;;;6.75;3.25;;;16.70;99.90;;;;;;4989944;28;20129;-69
2022/06/08 06:02:48;;;;;;;9.20;3.65;;;16.70;99.90;;;;;;4991964;28;20049;-70
2022/06/08 06:05:17;;;;;;;9.13;3.28;;;16.70;99.90;;;;;;4990754;28;20031;-70
2022/06/08 06:07:43;;;;;;;7.18;3.20;;;16.70;99.90;;;;;;4987706;28;20030;-68
2022/06/08 06:10:11;;;;;;;8.15;3.55;;;16.80;99.90;;;;;;4991094;28;20037;-68
2022/06/08 06:12:36;;;;;;;5.47;3.00;;;16.90;99.90;;;;;;4985797;28;20510;-69
2022/06/08 06:15:03;;;;;;;9.27;2.95;;;17.10;99.90;;;;;;4989601;28;20054;-68
2022/06/08 06:17:29;;;;;;;7.00;3.35;;;17.20;99.90;;;;;;4988390;28;20524;-70
2022/06/08 06:19:56;;;;;;;5.57;3.10;;;17.30;99.90;;;;;;4991301;28;20042;-69
2022/06/08 06:22:22;;;;;;;7.57;3.10;;;17.40;99.90;;;;;;4987030;28;20053;-67
2022/06/08 06:24:48;;;;;;;8.02;2.92;;;17.50;99.90;;;;;;4990766;28;20462;-72
2022/06/08 06:27:13;;;;;;;5.57;3.13;;;17.60;99.90;;;;;;4994317;28;20826;-69
2022/06/08 06:29:39;;;;;;;4.57;2.47;;;17.80;99.90;;;;;;4986081;28;20129;-68
2022/06/08 06:32:10;;;;;;;6.65;2.92;;;18.10;99.90;;;;;;4987104;28;20078;-71
2022/06/08 06:34:36;;;;;;;6.57;2.50;;;18.30;99.90;;;;;;4983096;28;20593;-69
2022/06/08 06:37:02;;;;;;;4.32;2.40;;;18.60;99.90;;;;;;4989068;28;20088;-68
2022/06/08 06:39:28;;;;;;;4.75;2.47;;;18.70;99.90;;;;;;4989883;28;20050;-68
2022/06/08 06:41:55;;;;;;;6.53;2.70;;;19.00;99.90;;;;;;4985391;28;20173;-68
2022/06/08 06:44:20;;;;;;;6.30;3.15;;;19.10;99.90;;;;;;4988262;28;20442;-69
2022/06/08 06:46:46;;;;;;;7.35;3.17;;;19.10;99.90;;;;;;4989398;28;20033;-68
2022/06/08 06:49:12;;;;;;;6.25;3.00;;;19.30;99.90;;;;;;4986833;28;20132;-70
2022/06/08 06:51:39;;;;;;;6.72;3.38;;;19.50;99.90;;;;;;4990829;28;20101;-68
2022/06/08 06:54:07;;;;;;;6.63;2.92;;;19.50;99.90;;;;;;4984745;28;20033;-68
2022/06/08 06:56:33;;;;;;;7.40;3.13;;;19.50;99.90;;;;;;4987182;28;20128;-69
2022/06/08 06:58:59;;;;;;;4.55;2.58;;;19.40;99.90;;;;;;4990573;28;20058;-69
2022/06/08 07:01:25;;;;;;;5.25;2.53;;;19.40;99.90;;;;;;4987271;28;20026;-68
2022/06/08 07:03:51;;;;;;;7.20;2.70;;;19.60;99.90;;;;;;4985837;28;20034;-68
2022/06/08 07:06:17;;;;;;;4.28;2.50;;;19.70;99.90;;;;;;4990567;28;20038;-68
2022/06/08 07:08:43;;;;;;;5.13;2.42;;;19.50;99.90;;;;;;4987800;28;20034;-67
2022/06/08 07:13:54;;;;;;;7.70;2.70;;;19.80;99.90;;;;;;4984994;28;20103;-68
2022/06/08 07:16:20;;;;;;;5.28;2.30;;;19.90;99.90;;;;;;4985672;28;20038;-68
2022/06/08 07:18:46;;;;;;;6.47;2.67;;;19.70;99.90;;;;;;4984359;28;20176;-68
2022/06/08 07:21:12;;;;;;;5.20;2.33;;;19.70;99.90;;;;;;4984332;28;20034;-68
2022/06/08 07:23:38;;;;;;;5.07;2.60;;;19.50;99.90;;;;;;4988598;28;20169;-70
2022/06/08 07:26:04;;;;;;;6.13;2.28;;;19.40;99.90;;;;;;4984758;28;20054;-68
2022/06/08 07:28:31;;;;;;;5.18;2.42;;;19.60;99.90;;;;;;4982141;28;20050;-68
2022/06/08 07:30:56;;;;;;;7.10;2.35;;;19.60;99.90;;;;;;4988185;28;20022;-67
2022/06/08 07:33:22;;;;;;;5.03;2.55;;;19.50;99.90;;;;;;4987861;28;20038;-70
2022/06/08 07:35:48;;;;;;;6.65;3.17;;;19.50;99.90;;;;;;4986305;28;20887;-70
2022/06/08 07:38:14;;;;;;;4.38;2.45;;;19.40;99.90;;;;;;4988236;28;20062;-71
2022/06/08 07:40:40;;;;;;;6.65;2.95;;;19.30;99.90;;;;;;4989460;28;20062;-69
2022/06/08 07:43:06;;;;;;;5.72;2.25;;;19.10;99.90;;;;;;4988092;28;20030;-68
2022/06/08 07:45:31;;;;;;;4.65;2.22;;;19.10;99.90;;;;;;4985281;28;20818;-68
2022/06/08 07:50:42;;;;;;;5.68;2.28;;;19.10;99.90;;;;;;4983647;28;20037;-68
2022/06/08 07:53:08;;;;;;;4.97;2.30;;;19.10;99.90;;;;;;4988566;28;20851;-67
2022/06/08 07:55:34;;;;;;;4.53;2.88;;;19.20;99.90;;;;;;4991237;28;20049;-69
2022/06/08 07:57:59;;;;;;;6.70;2.38;;;19.40;99.90;;;;;;4989316;28;20045;-69
2022/06/08 08:00:26;;;;;;;4.72;2.55;;;19.60;99.90;;;;;;4984795;28;20030;-70
2022/06/08 08:02:52;;;;;;;8.38;2.42;;;19.60;99.90;;;;;;4983557;28;20044;-68
2022/06/08 08:05:19;;;;;;;5.00;2.30;;;19.80;99.90;;;;;;4988292;28;20038;-71
2022/06/08 08:07:45;;;;;;;5.05;2.40;;;19.80;99.90;;;;;;4988569;28;20035;-70
2022/06/08 08:10:20;;;;;;;8.65;2.50;;;19.90;99.90;;;;;;4989174;28;20121;-67
2022/06/08 08:12:46;;;;;;;4.57;2.22;;;20.00;99.90;;;;;;4985762;28;20038;-68
2022/06/08 08:15:13;;;;;;;3.50;1.60;;;20.10;99.90;;;;;;4987899;28;20121;-72
2022/06/08 08:17:41;;;;;;;3.08;1.60;;;20.20;99.90;;;;;;4985675;28;20034;-69
2022/06/08 08:20:08;;;;;;;5.15;1.52;;;20.70;99.90;;;;;;4982097;28;20505;-68
2022/06/08 08:22:34;;;;;;;5.78;2.05;;;21.10;99.90;;;;;;4985639;28;20040;-68
2022/06/08 08:25:00;;;;;;;3.72;1.45;;;21.40;99.90;;;;;;4986922;28;20046;-69
2022/06/08 08:27:25;;;;;;;7.68;2.40;;;21.70;99.90;;;;;;4987889;28;20056;-71
2022/06/08 08:29:51;;;;;;;4.70;1.50;;;21.80;99.90;;;;;;4985254;28;20042;-69
2022/06/08 08:32:16;;;;;;;7.35;1.77;;;22.00;99.90;;;;;;4986053;28;20073;-69
2022/06/08 08:34:42;;;;;;;7.30;1.92;;;22.00;99.90;;;;;;4992198;28;20041;-70
2022/06/08 08:37:08;;;;;;;3.08;1.40;;;22.00;99.90;;;;;;4991907;28;20188;-68
2022/06/08 08:39:34;;;;;;;6.00;1.58;;;21.90;99.90;;;;;;4991052;28;20046;-68
2022/06/08 08:44:50;;;;;;;8.75;1.52;;;21.80;99.90;;;;;;4994785;28;20060;-69
2022/06/08 08:47:23;;;;;;;4.55;1.58;;;21.60;99.90;;;;;;4994565;28;20136;-70
2022/06/08 08:50:14;;;;;;;6.80;1.88;;;21.50;99.90;;;;;;4994213;28;20042;-72
2022/06/08 08:53:10;;;;;;;7.53;2.10;;;21.40;99.90;;;;;;4989821;28;20038;-68
2022/06/08 08:55:48;;;;;;;5.30;2.30;;;21.30;99.90;;;;;;4991490;28;20042;-68
2022/06/08 08:58:20;;;;;;;5.97;2.58;;;21.30;99.90;;;;;;4990424;28;20065;-68
2022/06/08 09:01:09;;;;;;;5.55;2.58;;;21.50;99.90;;;;;;4992416;28;20503;-68
2022/06/08 09:03:39;;;;;;;3.35;2.00;;;21.30;99.90;;;;;;4985914;28;20038;-69
2022/06/08 09:06:17;;;;;;;6.78;2.97;;;21.30;99.90;;;;;;4991393;28;20500;-68
2022/06/08 09:08:49;;;;;;;6.13;2.35;;;21.30;99.90;;;;;;4988912;28;20030;-68
2022/06/08 09:11:25;;;;;;;4.30;2.05;;;21.40;99.90;;;;;;4993724;28;20511;-70
2022/06/08 09:13:57;;;;;;;7.18;2.95;;;21.40;99.90;;;;;;4987705;28;20026;-69
2022/06/08 09:16:35;;;;;;;8.00;2.78;;;21.50;99.90;;;;;;4991103;28;20359;-73
2022/06/08 09:19:21;;;;;;;6.25;2.50;;;21.70;99.90;;;;;;4987735;28;22677;-69
2022/06/08 09:21:47;;;;;;;7.90;3.33;;;21.90;99.90;;;;;;4993382;28;20133;-70
2022/06/08 09:24:28;;;;;;;5.68;3.10;;;22.00;99.90;;;;;;4991251;28;20165;-69
2022/06/08 09:27:10;;;;;;;5.05;2.65;;;22.00;99.90;;;;;;4987251;28;20030;-68
2022/06/08 09:29:48;;;;;;;5.68;2.17;;;21.90;99.90;;;;;;4989458;28;20555;-69
2022/06/08 09:32:57;;;;;;;7.78;2.40;;;21.70;99.90;;;;;;4987183;28;20042;-69
2022/06/08 09:35:22;;;;;;;3.85;2.30;;;21.50;99.90;;;;;;4966297;28;20057;-70
2022/06/08 09:37:52;;;;;;;3.67;2.08;;;21.20;99.90;;;;;;4988259;28;20034;-72
2022/06/08 09:40:36;;;;;;;7.07;2.10;;;21.10;99.90;;;;;;4990201;28;20045;-69
2022/06/08 09:43:42;;;;;;;7.35;3.28;;;21.00;99.90;;;;;;4986201;28;20066;-72
2022/06/08 09:51:25;;;;;;;5.97;3.05;;;20.90;99.90;;;;;;4991123;28;20068;-71
2022/06/08 09:52:41;;;;;;;6.60;2.78;;;20.90;99.90;;;;;;4985790;28;20069;-67
2022/06/08 09:55:20;;;;;;;4.17;2.57;;;20.80;99.90;;;;;;4984332;28;20041;-69
2022/06/08 09:57:52;;;;;;;8.88;3.20;;;20.60;99.90;;;;;;4988359;28;20761;-69
2022/06/08 10:00:40;;;;;;;6.65;2.20;;;20.40;99.90;;;;;;4993407;28;20049;-67
2022/06/08 10:03:46;;;;;;;10.82;1.30;;;20.40;99.90;;;;;;5001253;28;20507;-68
2022/06/08 10:06:33;;;;;;;4.10;0.80;;;20.20;99.90;;;;;;4988890;28;20183;-69
2022/06/08 10:08:58;;;;;;;4.05;1.00;;;20.10;99.90;;;;;;4989640;28;20044;-68
2022/06/08 10:11:42;;;;;;;5.00;1.10;;;20.00;99.90;;;;;;4993149;28;20038;-70
2022/06/08 10:14:12;;;;;;;2.65;0.50;;;19.90;99.90;;;;;;4989802;28;20034;-69
2022/06/08 10:16:44;;;;;;;4.30;0.85;;;19.70;99.90;;;;;;4995837;28;20517;-69
2022/06/08 10:19:17;;;;;;;3.70;0.70;;;19.50;99.90;;;;;;4992771;28;20038;-68
2022/06/08 10:21:44;;;;;;;2.45;0.43;;;19.50;99.90;;;;;;4991038;28;20045;-69
2022/06/08 10:24:27;;;;;;;1.20;0.30;;;19.50;99.90;;;;;;5008464;28;20046;-69
2022/06/08 10:27:29;;;;;;;5.78;0.40;;;19.50;99.90;;;;;;5005936;28;20038;-72
2022/06/08 10:30:25;;;;;;;5.32;0.73;;;19.40;99.90;;;;;;5022704;28;20038;-69
2022/06/08 10:33:20;;;;;;;5.13;0.55;;;19.40;99.90;;;;;;4989678;28;20042;-72
2022/06/08 10:35:53;;;;;;;4.93;0.60;;;19.30;99.90;;;;;;5006947;28;20038;-69
2022/06/08 10:38:27;;;;;;;5.20;0.40;;;19.30;99.90;;;;;;5010098;28;20132;-71
2022/06/08 10:44:04;;;;;;;4.82;0.50;;;19.20;99.90;;;;;;5009888;28;20053;-69
2022/06/08 10:46:32;;;;;;;4.50;0.80;;;19.00;99.90;;;;;;5007744;28;20069;-72
2022/06/08 10:48:58;;;;;;;1.90;0.43;;;18.90;99.90;;;;;;4997989;28;20121;-68
2022/06/08 10:51:28;;;;;;;3.47;0.75;;;18.70;99.90;;;;;;4990565;28;20129;-68
2022/06/08 10:56:38;;;;;;;3.55;0.73;;;18.20;99.90;;;;;;4986487;28;20028;-69
2022/06/08 10:59:07;;;;;;;3.00;0.68;;;18.00;99.90;;;;;;4990904;28;20034;-67
2022/06/08 11:01:35;;;;;;;2.42;0.45;;;17.90;99.90;;;;;;4991853;28;20621;-69
2022/06/08 11:04:02;;;;;;;3.85;0.50;;;17.90;99.90;;;;;;4996276;28;20034;-67
2022/06/08 11:06:57;;;;;;;2.42;0.52;;;17.80;99.90;;;;;;4996937;28;20038;-69
2022/06/08 11:09:34;;;;;;;4.00;1.00;;;17.70;99.90;;;;;;4982626;28;20038;-69
2022/06/08 11:12:11;;;;;;;6.45;1.15;;;17.70;99.90;;;;;;5001311;28;20449;-69
2022/06/08 11:14:43;;;;;;;7.72;0.80;;;17.70;99.90;;;;;;4992471;28;20495;-67
2022/06/08 11:17:20;;;;;;;2.17;0.60;;;17.70;99.90;;;;;;4996667;28;20042;-69
2022/06/08 11:19:46;;;;;;;2.80;1.33;;;17.60;99.90;;;;;;4999478;28;20065;-67
2022/06/08 11:22:21;;;;;;;5.60;1.10;;;17.50;99.90;;;;;;4989244;28;20030;-68
2022/06/08 11:24:51;;;;;;;3.65;1.08;;;17.40;99.90;;;;;;4990456;28;20088;-68
2022/06/08 11:27:20;;;;;;;11.20;1.15;;;17.40;99.90;;;;;;4997513;28;20026;-68
2022/06/08 11:29:50;;;;;;;7.05;1.42;;;17.20;99.90;;;;;;5007335;28;20038;-71
2022/06/08 11:32:41;;;;;;;5.60;0.80;;;17.10;99.90;;;;;;4990892;28;20068;-68
2022/06/08 11:35:46;;;;;;;4.57;1.10;;;16.90;99.90;;;;;;4992986;28;20046;-70
2022/06/08 11:38:25;;;;;;;7.38;1.23;;;16.90;99.90;;;;;;4992042;28;20129;-69
2022/06/08 11:41:20;;;;;;;8.07;1.48;;;16.70;99.90;;;;;;4985770;28;20034;-69
2022/06/08 11:43:48;;;;;;;4.25;1.05;;;16.70;99.90;;;;;;4985644;28;20034;-70
2022/06/08 11:46:37;;;;;;;4.13;1.30;;;16.60;99.90;;;;;;4992175;28;20053;-68
2022/06/08 11:49:05;;;;;;;4.63;0.90;;;16.50;99.90;;;;;;4992665;28;20136;-69
2022/06/08 11:51:37;;;;;;;5.70;0.98;;;16.50;99.90;;;;;;4992301;28;20041;-69
2022/06/08 11:54:25;;;;;;;7.05;1.10;;;16.50;99.90;;;;;;4991059;28;20035;-69
2022/06/08 11:57:02;;;;;;;5.20;1.05;;;16.50;99.90;;;;;;4993042;28;20023;-69
2022/06/08 11:59:28;;;;;;;6.50;1.35;;;16.40;99.90;;;;;;4995535;28;20041;-70
2022/06/08 12:01:59;;;;;;;5.47;1.30;;;16.40;99.90;;;;;;4992426;28;20031;-70
2022/06/08 12:04:30;;;;;;;14.27;1.75;;;16.30;99.90;;;;;;4996138;28;20080;-70
2022/06/08 12:06:57;;;;;;;6.45;1.65;;;16.30;99.90;;;;;;4994660;28;20411;-69
2022/06/08 12:09:34;;;;;;;5.50;1.73;;;16.30;99.90;;;;;;4997004;28;20038;-69
2022/06/08 12:12:22;;;;;;;4.60;1.60;;;16.40;99.90;;;;;;4996376;28;20109;-69
2022/06/08 12:14:48;;;;;;;8.75;2.17;;;16.40;99.90;;;;;;5004966;28;20041;-70
2022/06/08 12:17:13;;;;;;;5.80;1.83;;;16.40;99.90;;;;;;4998556;28;20580;-69
2022/06/08 12:19:46;;;;;;;5.88;1.98;;;16.40;99.90;;;;;;4993393;28;20121;-69
2022/06/08 12:22:29;;;;;;;3.90;1.73;;;16.50;99.90;;;;;;4998094;28;20069;-69
2022/06/08 12:25:10;;;;;;;6.40;1.20;;;16.50;99.90;;;;;;4992511;28;20490;-70
2022/06/08 12:27:52;;;;;;;4.40;1.65;;;16.50;99.90;;;;;;4995427;28;20046;-69
2022/06/08 12:30:26;;;;;;;3.15;1.58;;;16.50;99.90;;;;;;4994606;28;20074;-69
2022/06/08 12:33:01;;;;;;;4.30;1.70;;;16.60;99.90;;;;;;4991086;28;20085;-68
2022/06/08 12:36:10;;;;;;;4.97;1.70;;;16.60;99.90;;;;;;4995942;28;20121;-69
2022/06/08 12:38:38;;;;;;;6.32;2.10;;;16.60;99.90;;;;;;4995540;28;20042;-69
2022/06/08 12:41:15;;;;;;;4.82;1.48;;;16.50;99.90;;;;;;4993486;28;20038;-69
2022/06/08 12:43:50;;;;;;;7.53;1.90;;;16.50;99.90;;;;;;4993713;28;20038;-68
2022/06/08 12:46:34;;;;;;;3.38;1.50;;;16.50;99.90;;;;;;4989587;28;20426;-69
2022/06/08 12:49:20;;;;;;;7.68;1.60;;;16.40;99.90;;;;;;4993109;28;20042;-69
2022/06/08 12:51:48;;;;;;;2.40;1.58;;;16.50;99.90;;;;;;4992049;28;20436;-68
2022/06/08 12:54:26;;;;;;;5.82;1.40;;;16.40;99.90;;;;;;4990337;28;20092;-69
2022/06/08 12:56:59;;;;;;;4.32;1.63;;;16.40;99.90;;;;;;4996642;28;20490;-69
2022/06/08 12:59:26;;;;;;;5.95;1.63;;;16.40;99.90;;;;;;4994382;28;20034;-70
2022/06/08 13:01:54;;;;;;;5.68;1.20;;;16.30;99.90;;;;;;4993910;28;20043;-70
2022/06/08 13:04:24;;;;;;;3.92;1.50;;;16.30;99.90;;;;;;5002297;28;20038;-69
2022/06/08 13:06:50;;;;;;;3.88;1.83;;;16.30;99.90;;;;;;4995119;28;20061;-69
2022/06/08 13:09:18;;;;;;;3.38;1.58;;;16.30;99.90;;;;;;4995243;28;20395;-69
2022/06/08 13:11:46;;;;;;;4.78;1.25;;;16.40;99.90;;;;;;4997367;28;20502;-69
2022/06/08 13:14:16;;;;;;;7.20;1.42;;;16.40;99.90;;;;;;4993208;28;20038;-69
2022/06/08 13:16:42;;;;;;;3.63;1.38;;;16.40;99.90;;;;;;4998329;28;20035;-69
2022/06/08 13:19:12;;;;;;;5.50;1.20;;;16.40;99.90;;;;;;5002057;28;20485;-69
2022/06/08 13:21:38;;;;;;;4.10;1.23;;;16.40;99.90;;;;;;5001012;28;20080;-70
2022/06/08 13:24:03;;;;;;;4.97;1.50;;;16.40;99.90;;;;;;4997925;28;20050;-69
2022/06/08 13:26:31;;;;;;;3.08;1.17;;;16.40;99.90;;;;;;5005774;28;20065;-68
2022/06/08 13:28:57;;;;;;;4.78;1.52;;;16.40;99.90;;;;;;5010052;28;20512;-69